Time;durP1;ratioP1;P1;durP2;ratioP2;P2;SDS_P1;SDS_P2;PMS_P1;PMS_P2;Temp;Humidity;BMP_temperature;BMP_pressure;BME280_temperature;BME280_humidity;BME280_pressure;Samples;Min_cycle;Max_cycle;Signal;HPM_P1;HPM_P2
2023/01/24 00:01:55;;;;;;;78.85;22.77;;;;;;;;;;5041307;28;20500;-69
2023/01/24 00:04:20;;;;;;;101.90;25.98;;;;;;;;;;5041551;28;20075;-72
2023/01/24 00:06:46;;;;;;;88.40;22.92;;;;;;;;;;5041855;28;20045;-70
2023/01/24 00:09:11;;;;;;;88.53;25.13;;;;;;;;;;5040868;28;20513;-71
2023/01/24 00:11:36;;;;;;;111.30;29.95;;;;;;;;;;5041319;28;20076;-68
2023/01/24 00:14:02;;;;;;;94.15;27.98;;;;;;;;;;5040478;28;20045;-71
2023/01/24 00:16:27;;;;;;;66.13;19.10;;;;;;;;;;5041515;28;20049;-68
2023/01/24 00:18:53;;;;;;;102.20;27.70;;;;;;;;;;5041731;28;20047;-70
2023/01/24 00:21:21;;;;;;;95.00;26.08;;;;;;;;;;5040526;28;20068;-71
2023/01/24 00:23:49;;;;;;;110.95;30.20;;;;;;;;;;5040774;28;20049;-71
2023/01/24 00:26:16;;;;;;;118.57;29.17;;;;;;;;;;5040683;28;20190;-71
2023/01/24 00:28:45;;;;;;;111.35;30.25;;;;;;;;;;5040396;28;20045;-67
2023/01/24 00:31:10;;;;;;;85.80;24.20;;;;;;;;;;5031762;28;20612;-67
2023/01/24 00:33:36;;;;;;;96.78;25.65;;;;;;;;;;5039628;28;20585;-69
2023/01/24 00:36:02;;;;;;;96.38;25.13;;;;;;;;;;5040838;28;20056;-67
2023/01/24 00:38:30;;;;;;;89.13;23.88;;;;;;;;;;5041537;28;20083;-68
2023/01/24 00:40:57;;;;;;;79.68;23.55;;;;;;;;;;5040128;28;20168;-66
2023/01/24 00:43:22;;;;;;;115.15;31.17;;;;;;;;;;5038857;28;20044;-66
2023/01/24 00:45:48;;;;;;;83.72;22.58;;;;;;;;;;5056460;28;20041;-68
2023/01/24 00:48:14;;;;;;;99.18;26.00;;;;;;;;;;5039491;28;20053;-66
2023/01/24 00:50:40;;;;;;;105.25;28.70;;;;;;;;;;5041218;28;20040;-67
2023/01/24 00:53:06;;;;;;;97.88;26.92;;;;;;;;;;5038063;28;20114;-67
2023/01/24 00:55:31;;;;;;;81.57;23.60;;;;;;;;;;5041197;28;20481;-66
2023/01/24 00:57:57;;;;;;;77.72;24.23;;;;;;;;;;5040433;28;20087;-69
2023/01/24 01:00:22;;;;;;;83.03;24.60;;;;;;;;;;5039414;28;20092;-68
2023/01/24 01:02:49;;;;;;;81.45;22.92;;;;;;;;;;5040386;28;20417;-70
2023/01/24 01:05:15;;;;;;;86.57;22.35;;;;;;;;;;5038709;28;20073;-67
2023/01/24 01:07:41;;;;;;;106.90;29.10;;;;;;;;;;5040990;28;20048;-71
2023/01/24 01:10:07;;;;;;;88.07;25.13;;;;;;;;;;5040650;28;20119;-67
2023/01/24 01:12:33;;;;;;;89.93;23.17;;;;;;;;;;5038935;28;20054;-68
2023/01/24 01:14:58;;;;;;;90.82;26.10;;;;;;;;;;5055211;28;20980;-68
2023/01/24 01:17:24;;;;;;;63.65;19.65;;;;;;;;;;5040444;28;20087;-67
2023/01/24 01:19:53;;;;;;;62.17;19.55;;;;;;;;;;5039974;28;20053;-67
2023/01/24 01:22:20;;;;;;;97.57;25.85;;;;;;;;;;5040201;28;20052;-67
2023/01/24 01:24:45;;;;;;;102.97;29.42;;;;;;;;;;5040564;28;20044;-67
2023/01/24 01:27:12;;;;;;;72.32;22.00;;;;;;;;;;5039551;28;20575;-69
2023/01/24 01:29:38;;;;;;;93.63;25.60;;;;;;;;;;5040586;28;20056;-68
2023/01/24 01:32:04;;;;;;;95.65;25.42;;;;;;;;;;5036900;28;20127;-69
2023/01/24 01:34:29;;;;;;;86.32;25.38;;;;;;;;;;5037491;28;20063;-67
2023/01/24 01:36:55;;;;;;;89.47;25.92;;;;;;;;;;5037165;28;20383;-70
2023/01/24 01:39:20;;;;;;;124.75;30.85;;;;;;;;;;5038353;28;20130;-68
2023/01/24 01:41:46;;;;;;;93.38;26.02;;;;;;;;;;5038359;28;20421;-68
2023/01/24 01:44:47;;;;;;;90.50;23.45;;;;;;;;;;5036662;28;20037;-67
2023/01/24 01:47:35;;;;;;;73.53;20.25;;;;;;;;;;5040166;28;20052;-69
2023/01/24 01:50:14;;;;;;;99.97;24.13;;;;;;;;;;5038917;28;20430;-68
2023/01/24 01:52:42;;;;;;;82.82;22.30;;;;;;;;;;5055085;28;20133;-69
2023/01/24 01:55:13;;;;;;;93.10;23.35;;;;;;;;;;5039977;28;20052;-69
2023/01/24 01:57:40;;;;;;;119.95;30.67;;;;;;;;;;5041281;28;20041;-67
2023/01/24 02:00:12;;;;;;;99.18;25.17;;;;;;;;;;5038646;28;20049;-66
2023/01/24 02:02:41;;;;;;;87.03;22.67;;;;;;;;;;5039616;28;20052;-67
2023/01/24 02:05:09;;;;;;;112.18;27.60;;;;;;;;;;5039534;28;20091;-67
2023/01/24 02:07:44;;;;;;;89.00;25.42;;;;;;;;;;5039796;28;20414;-67
2023/01/24 02:10:10;;;;;;;115.20;28.40;;;;;;;;;;5038187;28;20448;-67
2023/01/24 02:12:39;;;;;;;97.72;25.50;;;;;;;;;;5038205;28;20072;-67
2023/01/24 02:18:07;;;;;;;127.97;33.33;;;;;;;;;;5037403;28;20466;-67
2023/01/24 02:20:40;;;;;;;115.38;25.80;;;;;;;;;;5039875;28;20037;-67
2023/01/24 02:23:40;;;;;;;104.65;25.75;;;;;;;;;;5039359;28;20052;-67
2023/01/24 02:26:10;;;;;;;106.82;26.23;;;;;;;;;;5037804;28;20387;-67
2023/01/24 02:28:37;;;;;;;136.05;31.17;;;;;;;;;;5033292;28;20064;-69
2023/01/24 02:31:04;;;;;;;134.85;29.15;;;;;;;;;;5038416;28;20052;-67
2023/01/24 02:33:30;;;;;;;110.78;28.42;;;;;;;;;;5039299;28;20041;-66
2023/01/24 02:36:14;;;;;;;144.57;27.88;;;;;;;;;;5038047;28;20055;-68
2023/01/24 02:38:44;;;;;;;186.80;33.70;;;;;;;;;;5037903;28;20114;-68
2023/01/24 02:41:11;;;;;;;165.60;30.20;;;;;;;;;;5038496;28;20159;-68
2023/01/24 02:43:42;;;;;;;137.90;29.63;;;;;;;;;;5037593;28;20468;-69
2023/01/24 02:46:07;;;;;;;146.90;28.35;;;;;;;;;;5037424;28;20048;-68
2023/01/24 02:48:33;;;;;;;134.48;25.05;;;;;;;;;;5037919;28;20485;-68
2023/01/24 02:53:42;;;;;;;109.55;21.35;;;;;;;;;;5037940;28;20407;-68
2023/01/24 02:58:53;;;;;;;72.25;17.52;;;;;;;;;;5038305;28;21324;-70
2023/01/24 03:01:20;;;;;;;101.18;23.92;;;;;;;;;;5037367;28;20108;-68
2023/01/24 03:03:51;;;;;;;103.63;26.10;;;;;;;;;;5036976;28;20041;-68
2023/01/24 03:06:18;;;;;;;140.18;28.25;;;;;;;;;;5040941;28;20045;-67
2023/01/24 03:08:44;;;;;;;124.85;28.52;;;;;;;;;;5042220;28;20095;-68
2023/01/24 03:11:18;;;;;;;107.15;23.15;;;;;;;;;;5040328;28;20047;-68
2023/01/24 03:35:53;;;;;;;107.85;26.70;;;;;;;;;;5041622;28;20485;-67
2023/01/24 03:41:07;;;;;;;79.57;20.05;;;;;;;;;;5041282;28;20048;-68
2023/01/24 03:43:34;;;;;;;116.53;28.33;;;;;;;;;;5039196;28;20036;-67
2023/01/24 03:46:00;;;;;;;116.07;27.83;;;;;;;;;;5040205;28;20045;-67
2023/01/24 03:48:43;;;;;;;119.53;28.70;;;;;;;;;;5041122;28;20045;-67
2023/01/24 03:53:53;;;;;;;104.90;25.63;;;;;;;;;;5039644;28;20108;-68
2023/01/24 03:56:22;;;;;;;129.18;28.88;;;;;;;;;;5040129;28;20525;-67
2023/01/24 03:58:53;;;;;;;96.50;23.88;;;;;;;;;;5040946;28;20068;-67
2023/01/24 04:01:20;;;;;;;85.97;21.02;;;;;;;;;;5040911;28;20048;-67
2023/01/24 04:04:00;;;;;;;148.02;32.20;;;;;;;;;;5039491;28;20913;-67
2023/01/24 04:06:25;;;;;;;134.65;25.95;;;;;;;;;;5041255;28;20144;-67
2023/01/24 04:08:52;;;;;;;173.95;28.70;;;;;;;;;;5040264;28;20085;-67
2023/01/24 04:11:18;;;;;;;177.75;26.95;;;;;;;;;;5040247;28;20090;-67
2023/01/24 04:13:45;;;;;;;142.02;27.25;;;;;;;;;;5040004;28;20049;-67
2023/01/24 04:16:12;;;;;;;250.45;29.23;;;;;;;;;;5038743;28;20055;-67
2023/01/24 04:18:46;;;;;;;87.07;15.98;;;;;;;;;;5040537;28;21033;-68
2023/01/24 04:21:12;;;;;;;198.10;23.27;;;;;;;;;;5040336;28;20036;-68
2023/01/24 04:23:38;;;;;;;302.17;30.80;;;;;;;;;;5039852;28;20983;-68
2023/01/24 04:26:03;;;;;;;126.47;18.80;;;;;;;;;;5039964;28;20106;-67
2023/01/24 04:28:31;;;;;;;233.57;29.08;;;;;;;;;;5037588;28;20087;-67
2023/01/24 04:31:02;;;;;;;115.93;20.30;;;;;;;;;;5039339;28;20585;-67
2023/01/24 04:34:02;;;;;;;240.50;22.35;;;;;;;;;;5031283;28;20040;-67
2023/01/24 04:36:30;;;;;;;204.38;28.30;;;;;;;;;;5041546;28;20041;-67
2023/01/24 04:38:57;;;;;;;74.07;20.60;;;;;;;;;;5037138;28;20506;-67
2023/01/24 04:41:28;;;;;;;146.93;28.70;;;;;;;;;;5039712;28;20048;-67
2023/01/24 04:43:54;;;;;;;138.63;27.42;;;;;;;;;;5038606;28;20291;-68
2023/01/24 04:46:20;;;;;;;123.15;24.65;;;;;;;;;;5039721;28;20055;-67
2023/01/24 04:48:51;;;;;;;107.63;23.85;;;;;;;;;;5040257;28;20140;-67
2023/01/24 04:51:17;;;;;;;111.15;20.83;;;;;;;;;;5038918;28;20147;-67
2023/01/24 04:53:45;;;;;;;156.32;28.23;;;;;;;;;;5039140;28;20037;-67
2023/01/24 04:56:12;;;;;;;153.27;26.15;;;;;;;;;;5039304;28;20040;-67
2023/01/24 04:58:38;;;;;;;111.00;22.80;;;;;;;;;;5040696;28;20048;-69
2023/01/24 05:01:04;;;;;;;141.90;28.30;;;;;;;;;;5038884;28;20455;-68
2023/01/24 05:03:33;;;;;;;179.90;27.90;;;;;;;;;;5038878;28;20037;-69
2023/01/24 05:05:59;;;;;;;178.75;30.88;;;;;;;;;;5038532;28;20037;-70
2023/01/24 05:08:26;;;;;;;177.02;31.25;;;;;;;;;;5039016;28;20124;-70
2023/01/24 05:10:52;;;;;;;109.18;25.90;;;;;;;;;;5038905;28;20037;-70
2023/01/24 05:13:18;;;;;;;173.88;28.33;;;;;;;;;;5037657;28;20048;-70
2023/01/24 05:15:49;;;;;;;160.50;32.67;;;;;;;;;;5038872;28;20144;-70
2023/01/24 05:18:16;;;;;;;86.45;20.98;;;;;;;;;;5055187;28;20104;-70
2023/01/24 05:20:41;;;;;;;113.43;26.75;;;;;;;;;;5038975;28;20049;-70
2023/01/24 05:23:07;;;;;;;132.55;27.88;;;;;;;;;;5038104;28;20045;-70
2023/01/24 05:25:37;;;;;;;99.80;23.02;;;;;;;;;;5038741;28;20048;-70
2023/01/24 05:28:03;;;;;;;93.55;21.73;;;;;;;;;;5037598;28;20118;-70
2023/01/24 05:30:30;;;;;;;117.63;25.73;;;;;;;;;;5039232;28;20140;-70
2023/01/24 05:33:03;;;;;;;83.20;22.58;;;;;;;;;;5038584;28;20167;-71
2023/01/24 05:35:29;;;;;;;122.57;24.60;;;;;;;;;;5037306;28;20036;-71
2023/01/24 05:37:55;;;;;;;100.07;22.75;;;;;;;;;;5037382;28;20044;-70
2023/01/24 05:40:22;;;;;;;96.80;21.73;;;;;;;;;;5037962;28;20103;-69
2023/01/24 05:42:48;;;;;;;123.25;25.63;;;;;;;;;;5036275;28;20515;-69
2023/01/24 05:45:14;;;;;;;169.77;27.73;;;;;;;;;;5037581;28;20079;-69
2023/01/24 05:47:40;;;;;;;139.85;23.73;;;;;;;;;;5055066;28;20140;-70
2023/01/24 05:50:10;;;;;;;105.15;21.92;;;;;;;;;;5037718;28;20865;-70
2023/01/24 05:52:36;;;;;;;159.32;22.80;;;;;;;;;;5038528;28;20127;-71
2023/01/24 05:55:01;;;;;;;134.07;24.70;;;;;;;;;;5037487;28;20041;-70
2023/01/24 05:57:30;;;;;;;64.95;18.15;;;;;;;;;;5037847;28;20186;-69
2023/01/24 06:00:18;;;;;;;147.23;25.30;;;;;;;;;;5027959;28;20048;-69
2023/01/24 06:03:04;;;;;;;224.25;26.83;;;;;;;;;;5037076;28;20036;-71
2023/01/24 06:05:30;;;;;;;91.13;22.58;;;;;;;;;;5038348;28;20048;-71
2023/01/24 06:07:55;;;;;;;94.80;19.45;;;;;;;;;;5038023;28;20049;-69
2023/01/24 06:10:21;;;;;;;116.78;24.20;;;;;;;;;;5038835;28;20040;-69
2023/01/24 06:12:59;;;;;;;69.40;18.35;;;;;;;;;;5052773;28;20402;-69
2023/01/24 06:15:24;;;;;;;112.18;26.92;;;;;;;;;;5053168;28;20144;-69
2023/01/24 06:17:50;;;;;;;121.68;26.75;;;;;;;;;;5034966;28;20487;-68
2023/01/24 06:20:17;;;;;;;102.43;23.00;;;;;;;;;;5051254;28;20043;-67
2023/01/24 06:22:50;;;;;;;130.30;28.80;;;;;;;;;;5034579;28;20045;-70
2023/01/24 06:25:21;;;;;;;72.07;19.85;;;;;;;;;;5042561;28;20045;-69
2023/01/24 06:27:48;;;;;;;105.45;25.13;;;;;;;;;;5036316;28;20072;-70
2023/01/24 06:30:14;;;;;;;111.07;26.98;;;;;;;;;;5034835;28;20049;-70
2023/01/24 06:32:54;;;;;;;77.88;21.48;;;;;;;;;;5038340;28;20505;-70
2023/01/24 06:35:31;;;;;;;131.15;28.02;;;;;;;;;;5039610;28;20182;-69
2023/01/24 06:37:58;;;;;;;121.07;27.67;;;;;;;;;;5039099;28;20053;-70
2023/01/24 06:40:24;;;;;;;84.22;20.15;;;;;;;;;;5042528;28;20956;-67
2023/01/24 06:42:51;;;;;;;108.78;23.95;;;;;;;;;;5043280;28;20051;-67
2023/01/24 06:45:17;;;;;;;68.90;17.77;;;;;;;;;;5043321;28;20048;-67
2023/01/24 06:47:43;;;;;;;95.50;23.77;;;;;;;;;;5043624;28;20060;-68
2023/01/24 06:50:14;;;;;;;107.25;24.70;;;;;;;;;;5042416;28;20095;-68
2023/01/24 06:52:40;;;;;;;66.97;18.90;;;;;;;;;;5043276;28;20509;-68
2023/01/24 06:55:05;;;;;;;76.45;21.40;;;;;;;;;;5042553;28;20041;-67
2023/01/24 06:57:31;;;;;;;70.43;21.73;;;;;;;;;;5033019;28;20077;-68
2023/01/24 06:59:56;;;;;;;50.58;15.35;;;;;;;;;;5038680;28;20037;-68
2023/01/24 07:02:22;;;;;;;102.30;27.80;;;;;;;;;;5042256;28;20072;-68
2023/01/24 07:04:47;;;;;;;93.80;25.77;;;;;;;;;;5041395;28;20057;-68
2023/01/24 07:07:12;;;;;;;93.50;24.75;;;;;;;;;;5042746;28;20094;-68
2023/01/24 07:09:38;;;;;;;87.13;25.23;;;;;;;;;;5042476;28;20076;-68
2023/01/24 07:12:03;;;;;;;134.30;30.25;;;;;;;;;;5042131;28;21043;-69
2023/01/24 07:14:29;;;;;;;132.38;30.92;;;;;;;;;;5041568;28;20056;-68
2023/01/24 07:16:55;;;;;;;102.55;26.08;;;;;;;;;;5042931;28;20052;-69
2023/01/24 07:19:23;;;;;;;99.43;24.85;;;;;;;;;;5040593;28;20049;-68
2023/01/24 07:21:49;;;;;;;155.75;35.30;;;;;;;;;;5042809;28;20048;-69
2023/01/24 07:24:20;;;;;;;140.55;30.00;;;;;;;;;;5039979;28;20584;-68
2023/01/24 07:26:48;;;;;;;92.70;23.67;;;;;;;;;;5042808;28;20158;-68
2023/01/24 07:29:13;;;;;;;114.88;28.90;;;;;;;;;;5042187;28;20045;-68
2023/01/24 07:31:39;;;;;;;119.60;28.85;;;;;;;;;;5042568;28;20053;-69
2023/01/24 07:34:04;;;;;;;123.05;27.42;;;;;;;;;;5041274;28;20045;-69
2023/01/24 07:36:29;;;;;;;124.13;27.27;;;;;;;;;;5040641;28;20040;-68
2023/01/24 07:38:56;;;;;;;108.60;25.95;;;;;;;;;;5042032;28;20049;-68
2023/01/24 07:41:22;;;;;;;111.43;29.52;;;;;;;;;;5041562;28;20060;-68
2023/01/24 07:43:52;;;;;;;110.75;29.13;;;;;;;;;;5039571;28;20052;-69
2023/01/24 07:46:19;;;;;;;89.38;21.33;;;;;;;;;;5041621;28;20045;-68
2023/01/24 07:48:44;;;;;;;162.43;34.60;;;;;;;;;;5041583;28;20049;-69
2023/01/24 07:51:09;;;;;;;128.27;28.65;;;;;;;;;;5041215;28;20098;-69
2023/01/24 07:53:35;;;;;;;118.15;25.73;;;;;;;;;;5041708;28;20048;-69
2023/01/24 07:56:01;;;;;;;118.82;27.70;;;;;;;;;;5041361;28;20490;-68
2023/01/24 07:58:27;;;;;;;162.07;29.23;;;;;;;;;;5040905;28;20101;-69
2023/01/24 08:00:53;;;;;;;137.45;29.17;;;;;;;;;;5041895;28;20048;-68
2023/01/24 08:03:18;;;;;;;219.27;34.95;;;;;;;;;;5041751;28;20073;-69
2023/01/24 08:05:44;;;;;;;108.30;27.75;;;;;;;;;;5042070;28;20877;-69
2023/01/24 08:08:10;;;;;;;98.57;26.80;;;;;;;;;;5040034;28;21006;-69
2023/01/24 08:10:35;;;;;;;110.88;23.42;;;;;;;;;;5041738;28;20132;-69
2023/01/24 08:13:01;;;;;;;131.48;29.17;;;;;;;;;;5041435;28;20382;-69
2023/01/24 08:15:26;;;;;;;140.77;30.95;;;;;;;;;;5038643;28;20405;-68
2023/01/24 08:17:51;;;;;;;97.32;20.45;;;;;;;;;;5041746;28;20406;-68
2023/01/24 08:20:17;;;;;;;120.32;25.05;;;;;;;;;;5039662;28;20524;-68
2023/01/24 08:22:42;;;;;;;133.55;28.75;;;;;;;;;;5041555;28;20047;-69
2023/01/24 08:25:08;;;;;;;106.13;26.17;;;;;;;;;;5040679;28;20535;-69
2023/01/24 08:27:34;;;;;;;132.45;25.08;;;;;;;;;;5041120;28;20049;-69
2023/01/24 08:30:00;;;;;;;136.77;25.42;;;;;;;;;;5039695;28;20044;-69
2023/01/24 08:32:25;;;;;;;160.02;27.27;;;;;;;;;;5041130;28;20485;-69
2023/01/24 08:34:50;;;;;;;109.78;24.60;;;;;;;;;;5041293;28;20109;-69
2023/01/24 08:37:16;;;;;;;84.95;20.77;;;;;;;;;;5041834;28;20871;-68
2023/01/24 08:39:41;;;;;;;96.03;24.15;;;;;;;;;;5039755;28;20064;-68
2023/01/24 08:42:08;;;;;;;218.27;31.42;;;;;;;;;;5039858;28;20060;-69
2023/01/24 08:44:34;;;;;;;180.25;28.85;;;;;;;;;;5040184;28;20048;-69
2023/01/24 08:46:59;;;;;;;145.48;27.70;;;;;;;;;;5040935;28;20055;-68
2023/01/24 08:49:25;;;;;;;97.38;20.90;;;;;;;;;;5040984;28;20041;-69
2023/01/24 08:51:58;;;;;;;141.35;29.35;;;;;;;;;;5039954;28;20053;-69
2023/01/24 08:54:28;;;;;;;118.53;26.65;;;;;;;;;;5038099;28;20056;-68
2023/01/24 08:56:54;;;;;;;79.18;22.45;;;;;;;;;;5041610;28;20071;-68
2023/01/24 08:59:19;;;;;;;98.47;26.13;;;;;;;;;;5040303;28;20410;-68
2023/01/24 09:01:45;;;;;;;93.38;26.15;;;;;;;;;;5039669;28;20056;-68
2023/01/24 09:04:11;;;;;;;95.53;27.52;;;;;;;;;;5037927;28;20114;-68
2023/01/24 09:06:36;;;;;;;118.30;29.05;;;;;;;;;;5040788;28;20067;-68
2023/01/24 09:09:03;;;;;;;92.63;27.27;;;;;;;;;;5040225;28;20053;-69
2023/01/24 09:11:30;;;;;;;87.93;26.67;;;;;;;;;;5040837;28;20048;-69
2023/01/24 09:13:55;;;;;;;75.88;23.42;;;;;;;;;;5038753;28;20137;-69
2023/01/24 09:16:20;;;;;;;95.20;26.88;;;;;;;;;;5039212;28;20145;-68
2023/01/24 09:18:46;;;;;;;88.40;26.17;;;;;;;;;;5040323;28;20045;-68
2023/01/24 09:21:11;;;;;;;111.00;26.35;;;;;;;;;;5040583;28;20041;-69
2023/01/24 09:23:37;;;;;;;89.93;28.77;;;;;;;;;;5040494;28;20049;-69
2023/01/24 09:26:03;;;;;;;86.07;27.00;;;;;;;;;;5038829;28;20076;-69
2023/01/24 09:28:28;;;;;;;83.72;26.85;;;;;;;;;;5040134;28;20064;-69
2023/01/24 09:30:54;;;;;;;78.50;24.70;;;;;;;;;;5038190;28;20131;-69
2023/01/24 09:33:19;;;;;;;90.90;29.02;;;;;;;;;;5039876;28;20049;-68
2023/01/24 09:35:59;;;;;;;69.32;25.55;;;;;;;;;;5038427;28;20406;-69
2023/01/24 09:38:29;;;;;;;73.25;24.30;;;;;;;;;;5036811;28;20147;-69
2023/01/24 09:41:04;;;;;;;83.53;24.75;;;;;;;;;;5040376;28;20148;-68
2023/01/24 09:43:52;;;;;;;78.75;24.70;;;;;;;;;;5039688;28;20622;-68
2023/01/24 09:46:29;;;;;;;80.28;23.50;;;;;;;;;;5038947;28;20060;-69
2023/01/24 09:49:31;;;;;;;80.85;24.80;;;;;;;;;;5039816;28;20074;-68
2023/01/24 09:51:56;;;;;;;71.70;25.27;;;;;;;;;;5039622;28;20044;-68
2023/01/24 09:54:34;;;;;;;83.05;27.48;;;;;;;;;;5039529;28;20033;-68
2023/01/24 09:57:00;;;;;;;54.25;19.20;;;;;;;;;;5040336;28;20057;-68
2023/01/24 09:59:34;;;;;;;79.55;26.40;;;;;;;;;;5038695;28;20052;-68
2023/01/24 10:02:01;;;;;;;77.07;24.45;;;;;;;;;;5039160;28;20041;-68
2023/01/24 10:04:35;;;;;;;73.70;25.17;;;;;;;;;;5039387;28;20052;-68
2023/01/24 10:07:23;;;;;;;76.57;24.85;;;;;;;;;;5039933;28;20543;-68
2023/01/24 10:10:11;;;;;;;90.20;26.17;;;;;;;;;;5038715;28;20046;-69
2023/01/24 10:13:11;;;;;;;73.15;24.40;;;;;;;;;;5037391;28;20109;-68
2023/01/24 10:15:54;;;;;;;68.50;23.58;;;;;;;;;;5043904;28;20529;-68
2023/01/24 10:18:37;;;;;;;85.38;26.00;;;;;;;;;;5042525;28;20040;-69
2023/01/24 10:21:28;;;;;;;75.65;26.50;;;;;;;;;;5041614;28;20045;-69
2023/01/24 10:24:06;;;;;;;71.82;24.70;;;;;;;;;;5043066;28;20509;-70
2023/01/24 10:26:41;;;;;;;89.00;23.23;;;;;;;;;;5043508;28;20082;-69
2023/01/24 10:29:30;;;;;;;59.88;20.85;;;;;;;;;;5042522;28;21056;-69
2023/01/24 10:31:58;;;;;;;66.03;23.70;;;;;;;;;;5042854;28;20049;-69
2023/01/24 10:34:29;;;;;;;60.50;22.08;;;;;;;;;;5042857;28;20098;-69
2023/01/24 10:37:00;;;;;;;65.22;22.88;;;;;;;;;;5044102;28;20049;-70
2023/01/24 10:39:27;;;;;;;59.00;23.83;;;;;;;;;;5042882;28;20059;-70
2023/01/24 10:41:53;;;;;;;56.63;21.58;;;;;;;;;;5042534;28;20136;-68
2023/01/24 10:44:22;;;;;;;30.60;13.50;;;;;;;;;;5041223;28;20053;-69
2023/01/24 10:47:14;;;;;;;52.47;21.92;;;;;;;;;;5042002;28;20099;-68
2023/01/24 10:49:40;;;;;;;;;;;;;;;;;;5043245;28;20102;-68
2023/01/24 10:52:16;;;;;;;48.03;19.58;;;;;;;;;;5041495;28;19994;-69
2023/01/24 10:55:00;;;;;;;43.83;17.70;;;;;;;;;;5042310;28;20405;-68
2023/01/24 10:57:49;;;;;;;60.55;22.48;;;;;;;;;;5041755;28;20057;-68
2023/01/24 11:00:14;;;;;;;60.28;23.73;;;;;;;;;;5041426;28;20064;-68
2023/01/24 11:02:40;;;;;;;60.60;23.50;;;;;;;;;;5042710;28;20041;-68
2023/01/24 11:05:12;;;;;;;53.83;23.30;;;;;;;;;;5042442;28;20501;-68
2023/01/24 11:07:40;;;;;;;44.38;19.23;;;;;;;;;;5043284;28;20107;-69
2023/01/24 11:10:18;;;;;;;68.32;23.13;;;;;;;;;;5041999;28;20049;-68
2023/01/24 11:12:53;;;;;;;55.00;24.08;;;;;;;;;;5042943;28;20052;-68
2023/01/24 11:15:26;;;;;;;51.65;22.48;;;;;;;;;;5041668;28;20793;-68
2023/01/24 11:18:23;;;;;;;56.67;23.67;;;;;;;;;;5043390;28;20165;-68
2023/01/24 11:21:07;;;;;;;49.35;20.35;;;;;;;;;;5032658;28;20052;-68
2023/01/24 11:23:33;;;;;;;46.40;17.92;;;;;;;;;;5042298;28;20045;-68
2023/01/24 11:26:07;;;;;;;69.97;24.75;;;;;;;;;;5040524;28;20205;-69
2023/01/24 11:28:37;;;;;;;57.08;24.00;;;;;;;;;;5042162;28;20041;-68
2023/01/24 11:31:17;;;;;;;62.67;22.85;;;;;;;;;;5041610;28;20547;-68
2023/01/24 11:34:14;;;;;;;58.85;22.75;;;;;;;;;;5041012;28;20048;-68
2023/01/24 11:36:59;;;;;;;57.08;22.73;;;;;;;;;;4994786;28;20052;-69
2023/01/24 11:40:01;;;;;;;61.03;23.67;;;;;;;;;;5040944;28;20421;-69
2023/01/24 11:42:37;;;;;;;52.03;21.20;;;;;;;;;;5040882;28;20571;-68
2023/01/24 11:45:21;;;;;;;64.57;25.35;;;;;;;;;;5038910;28;20045;-71
2023/01/24 11:48:06;;;;;;;65.68;23.70;;;;;;;;;;5039075;28;20122;-67
2023/01/24 11:51:01;;;;;;;61.53;22.38;;;;;;;;;;5033254;28;20051;-68
2023/01/24 11:53:59;;;;;;;55.40;22.67;;;;;;;;;;5037724;28;20414;-69
2023/01/24 11:56:42;;;;;;;53.78;22.00;;;;;;;;;;5037334;28;20387;-69
2023/01/24 11:59:31;;;;;;;71.50;27.63;;;;;;;;;;5039771;28;20485;-69
2023/01/24 12:02:15;;;;;;;53.20;19.60;;;;;;;;;;5040871;28;20046;-68
2023/01/24 12:04:43;;;;;;;59.80;23.33;;;;;;;;;;5026556;28;21163;-69
2023/01/24 12:07:22;;;;;;;60.85;23.45;;;;;;;;;;5040523;28;20059;-69
2023/01/24 12:10:13;;;;;;;52.13;21.80;;;;;;;;;;5039897;28;20045;-69
2023/01/24 12:13:05;;;;;;;44.63;20.20;;;;;;;;;;5023413;28;20048;-69
2023/01/24 12:15:30;;;;;;;55.10;22.52;;;;;;;;;;5040899;28;20053;-68
2023/01/24 12:18:17;;;;;;;56.40;21.65;;;;;;;;;;5040706;28;20103;-68
2023/01/24 12:21:01;;;;;;;58.47;22.65;;;;;;;;;;5040519;28;20695;-68
2023/01/24 12:23:41;;;;;;;56.75;22.73;;;;;;;;;;5040733;28;20068;-68
2023/01/24 12:26:39;;;;;;;55.47;21.98;;;;;;;;;;5037900;28;20075;-70
2023/01/24 12:29:31;;;;;;;56.85;24.95;;;;;;;;;;5032448;28;20053;-71
2023/01/24 12:32:11;;;;;;;52.10;21.58;;;;;;;;;;5040313;28;20049;-69
2023/01/24 12:34:55;;;;;;;58.70;23.73;;;;;;;;;;5037980;28;20064;-68
2023/01/24 12:37:23;;;;;;;50.10;18.67;;;;;;;;;;5041358;28;20135;-68
2023/01/24 12:40:18;;;;;;;47.28;19.67;;;;;;;;;;5039575;28;20049;-69
2023/01/24 12:43:16;;;;;;;44.60;19.30;;;;;;;;;;5031923;28;20048;-69
2023/01/24 12:45:52;;;;;;;41.55;18.27;;;;;;;;;;5037662;28;20049;-69
2023/01/24 12:48:47;;;;;;;58.33;24.77;;;;;;;;;;5038114;28;20060;-69
2023/01/24 12:51:22;;;;;;;47.08;19.85;;;;;;;;;;5039201;28;20051;-68
2023/01/24 12:53:58;;;;;;;44.63;19.90;;;;;;;;;;5038239;28;20041;-69
2023/01/24 12:56:29;;;;;;;43.97;18.15;;;;;;;;;;5039400;28;20049;-68
2023/01/24 12:58:55;;;;;;;53.05;21.95;;;;;;;;;;5040064;28;20049;-68
2023/01/24 13:01:25;;;;;;;58.13;23.48;;;;;;;;;;5040328;28;20540;-68
2023/01/24 13:04:14;;;;;;;45.88;19.13;;;;;;;;;;5039653;28;20076;-69
2023/01/24 13:06:58;;;;;;;58.35;19.98;;;;;;;;;;4992068;28;20075;-68
2023/01/24 13:09:46;;;;;;;48.83;20.08;;;;;;;;;;5039147;28;21606;-69
2023/01/24 13:12:17;;;;;;;57.47;23.48;;;;;;;;;;5034143;28;20049;-69
2023/01/24 13:14:49;;;;;;;41.88;18.75;;;;;;;;;;5039564;28;20048;-69
2023/01/24 13:17:27;;;;;;;58.88;23.85;;;;;;;;;;5039999;28;20041;-68
2023/01/24 13:19:55;;;;;;;62.17;22.05;;;;;;;;;;5038238;28;20489;-68
2023/01/24 13:22:38;;;;;;;63.78;23.23;;;;;;;;;;5039367;28;20049;-68
2023/01/24 13:25:42;;;;;;;51.55;18.75;;;;;;;;;;5038632;28;20044;-68
2023/01/24 13:28:10;;;;;;;52.63;19.88;;;;;;;;;;5030423;28;20059;-68
2023/01/24 13:30:53;;;;;;;38.33;15.27;;;;;;;;;;5040165;28;20490;-68
2023/01/24 13:33:28;;;;;;;60.75;21.55;;;;;;;;;;5037003;28;20057;-68
2023/01/24 13:35:53;;;;;;;52.22;18.95;;;;;;;;;;5039471;28;20114;-69
2023/01/24 13:38:23;;;;;;;51.38;19.60;;;;;;;;;;5037518;28;20044;-69
2023/01/24 13:41:02;;;;;;;52.25;19.42;;;;;;;;;;5039734;28;20102;-68
2023/01/24 13:43:53;;;;;;;61.60;21.98;;;;;;;;;;5039352;28;20138;-69
2023/01/24 13:46:45;;;;;;;42.45;16.05;;;;;;;;;;5039408;28;20090;-68
2023/01/24 13:49:17;;;;;;;66.28;21.83;;;;;;;;;;5036114;28;20501;-69
2023/01/24 13:51:52;;;;;;;50.72;19.25;;;;;;;;;;5039380;28;20068;-69
2023/01/24 13:54:37;;;;;;;75.10;21.10;;;;;;;;;;5036668;28;20052;-70
2023/01/24 13:57:28;;;;;;;82.30;27.33;;;;;;;;;;5040011;28;20454;-69
2023/01/24 14:00:09;;;;;;;71.70;24.25;;;;;;;;;;5038162;28;20041;-69
2023/01/24 14:03:15;;;;;;;81.10;25.50;;;;;;;;;;5035225;28;20068;-69
2023/01/24 14:05:54;;;;;;;79.25;22.95;;;;;;;;;;5038176;28;20114;-69
2023/01/24 14:08:19;;;;;;;87.35;24.60;;;;;;;;;;5039227;28;20053;-70
2023/01/24 14:11:05;;;;;;;72.68;24.88;;;;;;;;;;5038321;28;20060;-68
2023/01/24 14:13:49;;;;;;;71.72;24.48;;;;;;;;;;5039022;28;20561;-69
2023/01/24 14:16:23;;;;;;;80.10;22.20;;;;;;;;;;5038751;28;20045;-70
2023/01/24 14:18:51;;;;;;;75.03;24.80;;;;;;;;;;5039200;28;20044;-68
2023/01/24 14:21:24;;;;;;;71.20;21.67;;;;;;;;;;5025393;28;20037;-69
2023/01/24 14:23:55;;;;;;;115.03;24.33;;;;;;;;;;5035516;28;20198;-69
2023/01/24 14:26:22;;;;;;;81.63;20.65;;;;;;;;;;5036302;28;20828;-68
2023/01/24 14:28:52;;;;;;;89.00;26.13;;;;;;;;;;5034485;28;20049;-69
2023/01/24 14:31:25;;;;;;;94.50;24.70;;;;;;;;;;5035508;28;20048;-68
2023/01/24 14:33:58;;;;;;;106.50;24.70;;;;;;;;;;5033968;28;20052;-70
2023/01/24 14:36:33;;;;;;;118.25;24.83;;;;;;;;;;5036356;28;20053;-70
2023/01/24 14:39:21;;;;;;;120.05;27.67;;;;;;;;;;5035977;28;20154;-70
2023/01/24 14:41:49;;;;;;;98.10;25.25;;;;;;;;;;5035037;28;20068;-69
2023/01/24 14:44:18;;;;;;;89.50;24.88;;;;;;;;;;5034728;28;20045;-68
2023/01/24 14:46:52;;;;;;;97.80;24.02;;;;;;;;;;5037548;28;20590;-68
2023/01/24 14:49:34;;;;;;;70.03;23.27;;;;;;;;;;5035555;28;20045;-68
2023/01/24 14:52:02;;;;;;;89.18;22.65;;;;;;;;;;5032517;28;20128;-69
2023/01/24 14:54:27;;;;;;;100.15;25.50;;;;;;;;;;5034292;28;20475;-70
2023/01/24 14:56:53;;;;;;;131.98;30.08;;;;;;;;;;5037346;28;20084;-69
2023/01/24 14:59:20;;;;;;;117.10;28.25;;;;;;;;;;5036645;28;20160;-69
2023/01/24 15:01:50;;;;;;;123.70;27.17;;;;;;;;;;5042157;28;20135;-69
2023/01/24 15:04:27;;;;;;;121.70;29.35;;;;;;;;;;5040389;28;20134;-70
2023/01/24 15:07:21;;;;;;;110.63;25.90;;;;;;;;;;5042618;28;20048;-69
2023/01/24 15:09:48;;;;;;;80.20;23.77;;;;;;;;;;5041693;28;20899;-70
2023/01/24 15:12:29;;;;;;;103.07;27.70;;;;;;;;;;5041619;28;20053;-69
2023/01/24 15:14:57;;;;;;;93.90;27.25;;;;;;;;;;5039668;28;20060;-68